Weather at Cape Cod Gateway Airport

Public forecast

Using degrees Fahrenheit for public forecast. Weather courtesy of forecast.io.

Current aviation weather report (METAR) for Cape Cod Gateway Airport

Report is more than 6 hours old.

2022/11/14 14:56 (retrieved 2 years ago)

KHYA 141456Z 30015G23KT 10SM CLR 04/M04 A3019 RMK AO2 SLP225 T00391039 51022

Aviation forecast (TAF) for Cape Cod Gateway Airport

Forecast is more than 12 hours old.

2023/02/22 18:40 (retrieved 1 year ago)

TAF KHYA 221738Z 2218/2318 27006KT P6SM BKN200 FM230200 17004KT 3SM -RASN BR OVC020 FM230500 13007KT 2SM -RA BR OVC003 FM231400 06013KT 1 1/2SM BR VCSH OVC008 FM231600 05013KT 2SM BR VCSH OVC010